Castleford, Idaho
Current Conditions -  °F | °C
As of 6:53 PM on Thursday 18 Dec 2014 (Local Time) from KTWF Reporting Station
Overcast Overcast  
Wind Chill: 33°   Ceiling: 7000
Heat Index: 40°   Visibility: 10mi
Dew Point: 27°   Wind: 12mph
Humidity: 60%   Direction: 180°S
Pressure: 30.11"   Gusts: NA
Location:  42.52°N, 114.87°W
Report Text: KTWF 190153Z 18010KT 10SM OVC070 04/M03 A3011 RMK AO2 SLP197 T00441028
Loading
Personal Weather Stations






























Interactive Weather Map New forecast layout! Learn more

10-Day Weather Forecast

Advertisements
Track Severe Weather on mobile